Radiosonde details



Informationen :

Serial : D25038784
Type : Graw DFM
Frequency : 403.170MHz
Launchsite : -
Nearest town : Island City, US (1.1km)

Altitude (Max) : 16926m at 2026-09-01 15:28:13
Speed (Max) : 122km/h at altitude 10272m

Average speed : 67km/h
Average ascent rate : 8m/s
Average descent rate : -6m/s
Ascent rate (Max) : 11.7m/s
Descent rate (Max): -9.5m/s

First frame :
KE7DJD at 2026-09-01 15:09:15 at altitude 7404m (OG: 7362m)
Last frame :
KE7DJD at 2026-09-01 16:04:58 at altitude 4118m (OG: 4076m)

Flighttime : 55m43s
Ascent time : 18m58s
Descent time : 36m45s
Uptime : -
Killtimer : -

Distance (Straight line distance): 59km

Distance (Route):


Frames : 139


Measurement :

Temperature : 6.2°C
Humidity : 0%
Pressure : 0hPa


Vertical profile (SkewT) :


Elevation profile :



Receiving stations :


Receiver Frames First received Last received
KE7DJD 139 2026-09-01 15:09:15 2026-09-01 16:04:58

Share per receiver :



All frames :


Receiver Date Latitude Longitude Direction Speed Altitude Climb Temperature Humidity Pressure Voltage Killtimer Uptime BKT XDATA
KE7DJD2026-09-01 16:04:5845.33942-118.0303337km/h4118m-4.8m/s6.2°C0%0hPa0V00:00:0000:00:0000:00:00
KE7DJD2026-09-01 16:04:1745.33550-118.03027360°40km/h4308m-3.9m/s5.0°C0%0hPa0V00:00:0000:00:0000:00:00
KE7DJD2026-09-01 16:02:5645.32728-118.02945347°40km/h4666m-3.4m/s3.3°C0%0hPa0V00:00:0000:00:0000:00:00
KE7DJD2026-09-01 16:02:1345.32323-118.02831348°38km/h4816m-3.3m/s2.4°C0%0hPa0V00:00:0000:00:0000:00:00
KE7DJD2026-09-01 16:01:3245.31945-118.02701346°35km/h4955m-4.2m/s1.2°C0%0hPa0V00:00:0000:00:0000:00:00
KE7DJD2026-09-01 16:01:1145.31759-118.02627343°37km/h5038m-3.5m/s0.6°C0%0hPa0V00:00:0000:00:0000:00:00
KE7DJD2026-09-01 16:00:3445.31449-118.02482343°35km/h5171m-3.7m/s-0.3°C0%0hPa0V00:00:0000:00:0000:00:00
KE7DJD2026-09-01 15:59:5545.31113-118.02292339°38km/h5329m-4.7m/s-1.3°C0%0hPa0V00:00:0000:00:0000:00:00
KE7DJD2026-09-01 15:59:1845.30806-118.02117339°33km/h5477m-3.4m/s-2.3°C0%0hPa0V00:00:0000:00:0000:00:00
KE7DJD2026-09-01 15:58:5745.30647-118.02028340°31km/h5552m-3.8m/s-2.8°C0%0hPa0V00:00:0000:00:0000:00:00
KE7DJD2026-09-01 15:58:0945.30315-118.01889355°31km/h5727m-4.2m/s-4.0°C0%0hPa0V00:00:0000:00:0000:00:00
KE7DJD2026-09-01 15:57:2345.29951-118.01829352°31km/h5907m-3.4m/s-5.5°C0%0hPa0V00:00:0000:00:0000:00:00
KE7DJD2026-09-01 15:56:5245.29714-118.01779353°31km/h6022m-3.2m/s-6.3°C0%0hPa0V00:00:0000:00:0000:00:00
KE7DJD2026-09-01 15:56:3145.29545-118.01743349°31km/h6098m-3.7m/s-6.8°C0%0hPa0V00:00:0000:00:0000:00:00
KE7DJD2026-09-01 15:55:5945.29325-118.01687357°27km/h6209m-4.7m/s-7.6°C0%0hPa0V00:00:0000:00:0000:00:00
KE7DJD2026-09-01 15:55:0445.28945-118.01671348°35km/h6455m-4.6m/s-9.6°C0%0hPa0V00:00:0000:00:0000:00:00
KE7DJD2026-09-01 15:54:3445.28708-118.0166535km/h6589m-5.3m/s-10.7°C0%0hPa0V00:00:0000:00:0000:00:00
KE7DJD2026-09-01 15:54:1445.28554-118.0167110°29km/h6688m-3.9m/s-11.4°C0%0hPa0V00:00:0000:00:0000:00:00
KE7DJD2026-09-01 15:53:3445.28224-118.0176238km/h6861m-4.6m/s-12.9°C0%0hPa0V00:00:0000:00:0000:00:00
KE7DJD2026-09-01 15:53:1245.27995-118.0182311°44km/h6984m-4.7m/s-14.0°C0%0hPa0V00:00:0000:00:0000:00:00
KE7DJD2026-09-01 15:52:5045.27765-118.0192424°46km/h7121m-6.3m/s-15.2°C0%0hPa0V00:00:0000:00:0000:00:00
KE7DJD2026-09-01 15:52:2045.27439-118.0215527°49km/h7301m-5.4m/s-16.3°C0%0hPa0V00:00:0000:00:0000:00:00
KE7DJD2026-09-01 15:51:5645.27148-118.0235727°58km/h7433m-5.3m/s-17.2°C0%0hPa0V00:00:0000:00:0000:00:00
KE7DJD2026-09-01 15:51:3645.26860-118.0255126°62km/h7548m-5.2m/s-18.2°C0%0hPa0V00:00:0000:00:0000:00:00
KE7DJD2026-09-01 15:51:1445.26563-118.0272722°60km/h7665m-5.9m/s-19.3°C0%0hPa0V00:00:0000:00:0000:00:00
KE7DJD2026-09-01 15:50:5445.26255-118.0288923°62km/h7783m-5.4m/s-20.3°C0%0hPa0V00:00:0000:00:0000:00:00
KE7DJD2026-09-01 15:50:3045.25902-118.0308122°69km/h7910m-5.0m/s-21.3°C0%0hPa0V00:00:0000:00:0000:00:00
KE7DJD2026-09-01 15:50:1045.25538-118.0326020°75km/h8025m-5.8m/s-21.9°C0%0hPa0V00:00:0000:00:0000:00:00
KE7DJD2026-09-01 15:49:4945.25166-118.0342518°77km/h8141m-5.2m/s-22.9°C0%0hPa0V00:00:0000:00:0000:00:00
KE7DJD2026-09-01 15:49:2745.24770-118.0357314°77km/h8257m-5.3m/s-23.7°C0%0hPa0V00:00:0000:00:0000:00:00
KE7DJD2026-09-01 15:49:0645.24359-118.0370613°80km/h8373m-5.8m/s-24.7°C0%0hPa0V00:00:0000:00:0000:00:00
KE7DJD2026-09-01 15:48:4345.23895-118.0385313°82km/h8499m-5.6m/s-25.6°C0%0hPa0V00:00:0000:00:0000:00:00
KE7DJD2026-09-01 15:48:2345.23459-118.0397010°84km/h8617m-5.7m/s-26.7°C0%0hPa0V00:00:0000:00:0000:00:00
KE7DJD2026-09-01 15:48:0045.22984-118.0407488km/h8747m-5.5m/s-27.7°C0%0hPa0V00:00:0000:00:0000:00:00
KE7DJD2026-09-01 15:47:3745.22462-118.0414293km/h8874m-5.7m/s-28.9°C0%0hPa0V00:00:0000:00:0000:00:00
KE7DJD2026-09-01 15:47:1245.21845-118.0418795km/h9012m-5.7m/s-30.1°C0%0hPa0V00:00:0000:00:0000:00:00
KE7DJD2026-09-01 15:46:4945.21317-118.0422895km/h9135m-5.5m/s-31.1°C0%0hPa0V00:00:0000:00:0000:00:00
KE7DJD2026-09-01 15:46:2045.20625-118.0427893km/h9301m-5.6m/s-32.7°C0%0hPa0V00:00:0000:00:0000:00:00
KE7DJD2026-09-01 15:45:5945.20127-118.0431495km/h9430m-6.0m/s-33.8°C0%0hPa0V00:00:0000:00:0000:00:00
KE7DJD2026-09-01 15:45:3745.19578-118.0435597km/h9564m-6.0m/s-35.0°C0%0hPa0V00:00:0000:00:0000:00:00
KE7DJD2026-09-01 15:45:1545.19065-118.0441299km/h9694m-6.0m/s-36.1°C0%0hPa0V00:00:0000:00:0000:00:00
KE7DJD2026-09-01 15:44:5445.18538-118.04506100km/h9828m-6.6m/s-37.3°C0%0hPa0V00:00:0000:00:0000:00:00
KE7DJD2026-09-01 15:44:3245.17988-118.0462199km/h9971m-6.3m/s-38.6°C0%0hPa0V00:00:0000:00:0000:00:00
KE7DJD2026-09-01 15:44:1145.17451-118.0474110°97km/h10104m-6.0m/s-39.7°C0%0hPa0V00:00:0000:00:0000:00:00
KE7DJD2026-09-01 15:43:5045.16977-118.0487414°97km/h10228m-6.2m/s-40.5°C0%0hPa0V00:00:0000:00:0000:00:00
KE7DJD2026-09-01 15:43:2245.16340-118.0511317°89km/h10407m-6.3m/s-41.8°C0%0hPa0V00:00:0000:00:0000:00:00
KE7DJD2026-09-01 15:42:5845.15829-118.0531616°88km/h10553m-5.7m/s-43.1°C0%0hPa0V00:00:0000:00:0000:00:00
KE7DJD2026-09-01 15:42:3645.15342-118.0548815°91km/h10685m-6.2m/s-44.3°C0%0hPa0V00:00:0000:00:0000:00:00
KE7DJD2026-09-01 15:42:1445.14825-118.0566214°99km/h10824m-6.0m/s-45.5°C0%0hPa0V00:00:0000:00:0000:00:00
KE7DJD2026-09-01 15:41:5445.14342-118.0581414°93km/h10952m-6.1m/s-46.4°C0%0hPa0V00:00:0000:00:0000:00:00
KE7DJD2026-09-01 15:41:3345.13882-118.0594310°86km/h11080m-6.4m/s-46.6°C0%0hPa0V00:00:0000:00:0000:00:00
KE7DJD2026-09-01 15:41:1245.13418-118.0605512°91km/h11209m-5.9m/s-47.1°C0%0hPa0V00:00:0000:00:0000:00:00
KE7DJD2026-09-01 15:40:5045.12945-118.0618713°82km/h11344m-6.2m/s-47.8°C0%0hPa0V00:00:0000:00:0000:00:00
KE7DJD2026-09-01 15:40:2945.12533-118.0631414°77km/h11473m-5.8m/s-48.3°C0%0hPa0V00:00:0000:00:0000:00:00
KE7DJD2026-09-01 15:40:0845.12146-118.0643312°73km/h11605m-6.0m/s-49.4°C0%0hPa0V00:00:0000:00:0000:00:00
KE7DJD2026-09-01 15:39:4845.11757-118.0652177km/h11737m-6.1m/s-50.2°C0%0hPa0V00:00:0000:00:0000:00:00
KE7DJD2026-09-01 15:39:2745.11340-118.06492354°82km/h11870m-6.2m/s-49.8°C0%0hPa0V00:00:0000:00:0000:00:00
KE7DJD2026-09-01 15:39:0645.10933-118.06423356°80km/h11997m-6.4m/s-49.5°C0%0hPa0V00:00:0000:00:0000:00:00
KE7DJD2026-09-01 15:38:4545.10503-118.0641880km/h12132m-6.3m/s-49.0°C0%0hPa0V00:00:0000:00:0000:00:00
KE7DJD2026-09-01 15:38:2545.10089-118.0647286km/h12258m-6.1m/s-49.3°C0%0hPa0V00:00:0000:00:0000:00:00
KE7DJD2026-09-01 15:38:0445.09638-118.0655280km/h12393m-6.0m/s-49.0°C0%0hPa0V00:00:0000:00:0000:00:00
KE7DJD2026-09-01 15:37:4245.09241-118.0667617°69km/h12523m-6.1m/s-47.1°C0%0hPa0V00:00:0000:00:0000:00:00
KE7DJD2026-09-01 15:37:1945.08880-118.0683418°62km/h12677m-6.9m/s-46.4°C0%0hPa0V00:00:0000:00:0000:00:00
KE7DJD2026-09-01 15:36:5845.08551-118.0695014°62km/h12826m-7.2m/s-46.1°C0%0hPa0V00:00:0000:00:0000:00:00
KE7DJD2026-09-01 15:36:3545.08181-118.0704915°69km/h12987m-6.8m/s-47.1°C0%0hPa0V00:00:0000:00:0000:00:00
KE7DJD2026-09-01 15:36:1545.07819-118.0718218°75km/h13124m-6.7m/s-47.2°C0%0hPa0V00:00:0000:00:0000:00:00
KE7DJD2026-09-01 15:35:5545.07465-118.0737028°77km/h13268m-6.8m/s-45.5°C0%0hPa0V00:00:0000:00:0000:00:00
KE7DJD2026-09-01 15:35:3445.07135-118.0765933°69km/h13412m-7.0m/s-44.9°C0%0hPa0V00:00:0000:00:0000:00:00
KE7DJD2026-09-01 15:35:1245.06829-118.0792532°60km/h13563m-6.8m/s-45.6°C0%0hPa0V00:00:0000:00:0000:00:00
KE7DJD2026-09-01 15:34:5045.06579-118.0813326°49km/h13725m-7.3m/s-46.3°C0%0hPa0V00:00:0000:00:0000:00:00
KE7DJD2026-09-01 15:34:2745.06315-118.0830224°47km/h13890m-7.4m/s-46.2°C0%0hPa0V00:00:0000:00:0000:00:00
KE7DJD2026-09-01 15:34:0645.06052-118.0843424°57km/h14059m-7.4m/s-46.5°C0%0hPa0V00:00:0000:00:0000:00:00
KE7DJD2026-09-01 15:33:4445.05773-118.0861627°60km/h14222m-7.7m/s-46.5°C0%0hPa0V00:00:0000:00:0000:00:00
KE7DJD2026-09-01 15:33:2345.05465-118.0883629°66km/h14393m-7.8m/s-46.9°C0%0hPa0V00:00:0000:00:0000:00:00
KE7DJD2026-09-01 15:33:0245.05180-118.0909834°62km/h14556m-8.0m/s-47.2°C0%0hPa0V00:00:0000:00:0000:00:00
KE7DJD2026-09-01 15:32:4245.04879-118.0931930°69km/h14730m-8.3m/s-47.4°C0%0hPa0V00:00:0000:00:0000:00:00
KE7DJD2026-09-01 15:32:2145.04588-118.0958132°66km/h14900m-8.4m/s-47.6°C0%0hPa0V00:00:0000:00:0000:00:00
KE7DJD2026-09-01 15:32:0145.04292-118.0981626°62km/h15085m-8.6m/s-47.2°C0%0hPa0V00:00:0000:00:0000:00:00
KE7DJD2026-09-01 15:31:4045.03989-118.1005231°68km/h15274m-8.7m/s-46.4°C0%0hPa0V00:00:0000:00:0000:00:00
KE7DJD2026-09-01 15:31:1945.03681-118.1031835°71km/h15455m-9.0m/s-46.5°C0%0hPa0V00:00:0000:00:0000:00:00
KE7DJD2026-09-01 15:30:5845.03363-118.1056426°66km/h15648m-9.5m/s-46.8°C0%0hPa0V00:00:0000:00:0000:00:00
KE7DJD2026-09-01 15:30:3745.03075-118.1077336°57km/h15836m-8.9m/s-46.3°C0%0hPa0V00:00:0000:00:0000:00:00
KE7DJD2026-09-01 15:30:1645.02829-118.1097526°55km/h15992m-8.0m/s-47.0°C0%0hPa0V00:00:0000:00:0000:00:00
KE7DJD2026-09-01 15:29:5645.02576-118.1120117°57km/h16153m-7.8m/s-46.8°C0%0hPa0V00:00:0000:00:0000:00:00
KE7DJD2026-09-01 15:29:3545.02356-118.1137418°47km/h16300m-7.2m/s-46.9°C0%0hPa0V00:00:0000:00:0000:00:00
KE7DJD2026-09-01 15:29:1545.02138-118.1153018°53km/h16454m-5.9m/s-47.2°C0%0hPa0V00:00:0000:00:0000:00:00
KE7DJD2026-09-01 15:28:5445.01900-118.1167736°42km/h16615m-8.3m/s-46.9°C0%0hPa0V00:00:0000:00:0000:00:00
KE7DJD2026-09-01 15:28:3445.01688-118.1184235°55km/h16780m-6.0m/s-46.9°C0%0hPa0V00:00:0000:00:0000:00:00
KE7DJD2026-09-01 15:28:1345.01480-118.1203628°60km/h16926m-7.1m/s-47.6°C0%0hPa0V00:00:0000:00:0000:00:00
KE7DJD2026-09-01 15:27:5345.01218-118.1225022°53km/h16871m6.9m/s-47.4°C0%0hPa0V00:00:0000:00:0000:00:00
KE7DJD2026-09-01 15:27:3245.00994-118.1245423°47km/h16716m8.8m/s-47.2°C0%0hPa0V00:00:0000:00:0000:00:00
KE7DJD2026-09-01 15:27:1245.00793-118.1259228°49km/h16551m9.4m/s-47.6°C0%0hPa0V00:00:0000:00:0000:00:00
KE7DJD2026-09-01 15:26:5045.00573-118.1275335°29km/h16386m7.3m/s-47.3°C0%0hPa0V00:00:0000:00:0000:00:00
KE7DJD2026-09-01 15:26:3045.00380-118.1292646°33km/h16215m11.7m/s-47.0°C0%0hPa0V00:00:0000:00:0000:00:00
KE7DJD2026-09-01 15:26:1045.00160-118.1314837°37km/h16048m7.6m/s-47.2°C0%0hPa0V00:00:0000:00:0000:00:00
KE7DJD2026-09-01 15:25:4944.99921-118.1332217°42km/h15873m5.3m/s-46.5°C0%0hPa0V00:00:0000:00:0000:00:00
KE7DJD2026-09-01 15:25:2944.99688-118.1351330°58km/h15714m4.1m/s-46.7°C0%0hPa0V00:00:0000:00:0000:00:00
KE7DJD2026-09-01 15:25:0744.99399-118.1370818°58km/h15563m4.2m/s-46.9°C0%0hPa0V00:00:0000:00:0000:00:00
KE7DJD2026-09-01 15:24:4744.99110-118.1397034°77km/h15389m8.4m/s-47.0°C0%0hPa0V00:00:0000:00:0000:00:00
KE7DJD2026-09-01 15:24:2644.98809-118.1422929°68km/h15242m7.1m/s-46.7°C0%0hPa0V00:00:0000:00:0000:00:00
KE7DJD2026-09-01 15:24:0644.98529-118.1449027°49km/h15067m6.6m/s-47.3°C0%0hPa0V00:00:0000:00:0000:00:00
KE7DJD2026-09-01 15:23:4544.98236-118.1470135°57km/h14876m10.7m/s-47.8°C0%0hPa0V00:00:0000:00:0000:00:00
KE7DJD2026-09-01 15:23:2444.97965-118.1501424°64km/h14698m8.2m/s-47.6°C0%0hPa0V00:00:0000:00:0000:00:00
KE7DJD2026-09-01 15:23:0344.97726-118.1524338km/h14527m8.5m/s-47.6°C0%0hPa0V00:00:0000:00:0000:00:00
KE7DJD2026-09-01 15:22:4344.97369-118.1552923°35km/h14321m10.9m/s-47.1°C0%0hPa0V00:00:0000:00:0000:00:00
KE7DJD2026-09-01 15:22:2244.97134-118.1577116°86km/h14142m7.7m/s-46.4°C0%0hPa0V00:00:0000:00:0000:00:00
KE7DJD2026-09-01 15:21:4144.96679-118.1599310°15km/h13725m4.6m/s-46.0°C0%0hPa0V00:00:0000:00:0000:00:00
KE7DJD2026-09-01 15:21:1944.96472-118.1613396°49km/h13509m10.0m/s-45.1°C0%0hPa0V00:00:0000:00:0000:00:00
KE7DJD2026-09-01 15:20:3644.95871-118.16660359°57km/h13088m7.9m/s-44.8°C0%0hPa0V00:00:0000:00:0000:00:00
KE7DJD2026-09-01 15:20:1444.95459-118.16908354°89km/h12892m7.0m/s-46.5°C0%0hPa0V00:00:0000:00:0000:00:00
KE7DJD2026-09-01 15:19:5344.95082-118.1702326°93km/h12702m7.6m/s-46.4°C0%0hPa0V00:00:0000:00:0000:00:00
KE7DJD2026-09-01 15:19:2444.94522-118.17219346°100km/h12428m6.3m/s0°C0%0hPa0V00:00:0000:00:0000:00:00
KE7DJD2026-09-01 15:18:5044.93742-118.1737113°119km/h12122m9.0m/s-49.6°C0%0hPa0V00:00:0000:00:0000:00:00
KE7DJD2026-09-01 15:18:2944.93285-118.17419334°69km/h11916m8.3m/s-51.4°C0%0hPa0V00:00:0000:00:0000:00:00
KE7DJD2026-09-01 15:17:5944.92620-118.17564352°86km/h11606m9.5m/s0°C0%0hPa0V00:00:0000:00:0000:00:00
KE7DJD2026-09-01 15:17:2944.92042-118.17746360°89km/h11317m6.5m/s-48.0°C0%0hPa0V00:00:0000:00:0000:00:00
KE7DJD2026-09-01 15:17:0944.91583-118.1785625°68km/h11128m9.5m/s-47.1°C0%0hPa0V00:00:0000:00:0000:00:00
KE7DJD2026-09-01 15:16:4844.91147-118.17957358°78km/h10953m6.6m/s-47.2°C0%0hPa0V00:00:0000:00:0000:00:00
KE7DJD2026-09-01 15:16:2744.90688-118.1808091km/h10780m11.1m/s-45.7°C0%0hPa0V00:00:0000:00:0000:00:00
KE7DJD2026-09-01 15:16:0644.90268-118.18239119km/h10602m6.7m/s-44.0°C0%0hPa0V00:00:0000:00:0000:00:00
KE7DJD2026-09-01 15:15:4644.89820-118.18388106km/h10447m10.0m/s-42.7°C0%0hPa0V00:00:0000:00:0000:00:00
KE7DJD2026-09-01 15:15:2544.89356-118.1854310°120km/h10272m8.6m/s-41.4°C0%0hPa0V00:00:0000:00:0000:00:00
KE7DJD2026-09-01 15:15:0544.88865-118.18598353°80km/h10112m6.6m/s-40.2°C0%0hPa0V00:00:0000:00:0000:00:00
KE7DJD2026-09-01 15:14:4544.88339-118.18616356°104km/h9944m6.6m/s-38.7°C0%0hPa0V00:00:0000:00:0000:00:00
KE7DJD2026-09-01 15:14:2444.87882-118.18711359°113km/h9795m7.3m/s-37.3°C0%0hPa0V00:00:0000:00:0000:00:00
KE7DJD2026-09-01 15:14:0444.87411-118.1872675km/h9635m10.3m/s-36.0°C0%0hPa0V00:00:0000:00:0000:00:00
KE7DJD2026-09-01 15:13:4344.86952-118.18751359°102km/h9468m9.6m/s-34.4°C0%0hPa0V00:00:0000:00:0000:00:00
KE7DJD2026-09-01 15:13:2344.86503-118.1875614°88km/h9298m7.6m/s-32.9°C0%0hPa0V00:00:0000:00:0000:00:00
KE7DJD2026-09-01 15:13:0244.86062-118.18753353°69km/h9148m7.8m/s-31.6°C0%0hPa0V00:00:0000:00:0000:00:00
KE7DJD2026-09-01 15:12:4244.85610-118.18786356°97km/h8992m6.1m/s-30.3°C0%0hPa0V00:00:0000:00:0000:00:00
KE7DJD2026-09-01 15:12:2144.85215-118.1880686km/h8842m7.1m/s-29.0°C0%0hPa0V00:00:0000:00:0000:00:00
KE7DJD2026-09-01 15:11:4044.84460-118.18996359°80km/h8525m5.7m/s-26.4°C0%0hPa0V00:00:0000:00:0000:00:00
KE7DJD2026-09-01 15:11:2044.84086-118.1912124°73km/h8376m6.0m/s-25.2°C0%0hPa0V00:00:0000:00:0000:00:00
KE7DJD2026-09-01 15:10:5944.83679-118.1925919°89km/h8217m5.7m/s-24.1°C0%0hPa0V00:00:0000:00:0000:00:00
KE7DJD2026-09-01 15:10:3844.83345-118.1936557km/h8072m6.6m/s-22.9°C0%0hPa0V00:00:0000:00:0000:00:00
KE7DJD2026-09-01 15:10:1744.83006-118.1946010°84km/h7915m8.0m/s-21.7°C0%0hPa0V00:00:0000:00:0000:00:00
KE7DJD2026-09-01 15:09:5744.82705-118.1958634°60km/h7752m9.5m/s-19.9°C0%0hPa0V00:00:0000:00:0000:00:00
KE7DJD2026-09-01 15:09:3744.82443-118.1970742km/h7585m10.1m/s-18.7°C0%0hPa0V00:00:0000:00:0000:00:00
KE7DJD2026-09-01 15:09:1544.82182-118.1981012°33km/h7404m5.6m/s-16.9°C0%0hPa0V00:00:0000:00:0000:00:00


GPX KML Map

© wettersonde.net (DO2JMG) - 2026  -  -